createdAt,value
2022-11-17T00:00:07.399Z,10.49
2022-11-17T00:02:36.792Z,10.40
2022-11-17T00:05:03.891Z,10.30
2022-11-17T00:07:30.736Z,10.51
2022-11-17T00:09:57.395Z,10.56
2022-11-17T00:12:42.302Z,10.76
2022-11-17T00:15:09.050Z,10.67
2022-11-17T00:17:35.685Z,10.90
2022-11-17T00:20:20.982Z,10.73
2022-11-17T00:22:48.216Z,10.74
2022-11-17T00:25:14.826Z,10.65
2022-11-17T00:27:41.518Z,10.60
2022-11-17T00:30:08.719Z,10.73
2022-11-17T00:32:54.000Z,10.65
2022-11-17T00:35:20.565Z,10.92
2022-11-17T00:38:05.840Z,10.73
2022-11-17T00:40:32.480Z,10.72
2022-11-17T00:42:59.049Z,10.50
2022-11-17T00:45:25.638Z,10.61
2022-11-17T00:47:52.213Z,10.48
2022-11-17T00:50:18.789Z,10.72
2022-11-17T00:52:45.402Z,10.95
2022-11-17T00:55:12.020Z,10.93
2022-11-17T00:57:38.627Z,11.05
2022-11-17T01:00:05.773Z,11.20
2022-11-17T01:02:32.388Z,11.14
2022-11-17T01:04:58.968Z,11.15
2022-11-17T01:07:26.105Z,11.00
2022-11-17T01:09:52.742Z,11.00
2022-11-17T01:12:19.316Z,11.03
2022-11-17T01:14:45.897Z,10.96
2022-11-17T01:17:12.484Z,11.09
2022-11-17T01:19:39.072Z,11.09
2022-11-17T01:22:06.742Z,11.16
2022-11-17T01:24:33.329Z,11.10
2022-11-17T01:26:59.918Z,10.86
2022-11-17T01:29:26.487Z,10.80
2022-11-17T01:31:53.256Z,10.79
2022-11-17T01:34:20.047Z,10.66
2022-11-17T01:37:05.290Z,10.54
2022-11-17T01:39:32.284Z,10.53
2022-11-17T01:42:03.930Z,10.50
2022-11-17T01:44:48.164Z,10.75
2022-11-17T01:47:19.843Z,10.83
2022-11-17T01:49:47.898Z,10.69
2022-11-17T01:52:15.558Z,10.53
2022-11-17T01:54:45.670Z,10.61
2022-11-17T01:57:21.844Z,10.63
2022-11-17T01:59:59.150Z,10.47
2022-11-17T02:02:26.135Z,10.44
2022-11-17T02:05:26.614Z,10.57
2022-11-17T02:08:14.027Z,10.62
2022-11-17T02:10:45.808Z,10.54
2022-11-17T02:13:15.353Z,10.48
2022-11-17T02:15:41.992Z,10.60
2022-11-17T02:18:08.957Z,10.32
2022-11-17T02:20:49.487Z,10.50
2022-11-17T02:23:59.856Z,10.33
2022-11-17T02:27:14.541Z,10.49
2022-11-17T02:29:54.824Z,10.39
2022-11-17T02:32:59.090Z,10.24
2022-11-17T02:35:58.425Z,10.25
2022-11-17T02:38:31.024Z,10.53
2022-11-17T02:41:16.418Z,10.30
2022-11-17T02:44:06.768Z,10.46
2022-11-17T02:46:45.509Z,10.69
2022-11-17T02:49:19.747Z,10.99
2022-11-17T02:51:50.026Z,11.10
2022-11-17T02:54:17.954Z,10.87
2022-11-17T02:56:44.648Z,10.56
2022-11-17T02:59:15.708Z,10.61
2022-11-17T03:01:48.284Z,10.60
2022-11-17T03:04:31.909Z,10.73
2022-11-17T03:07:06.061Z,10.58
2022-11-17T03:09:54.468Z,10.40
2022-11-17T03:12:36.235Z,10.45
2022-11-17T03:15:15.013Z,10.48
2022-11-17T03:17:53.825Z,10.68
2022-11-17T03:20:29.736Z,10.53
2022-11-17T03:23:08.885Z,10.55
2022-11-17T03:25:38.430Z,10.52
2022-11-17T03:28:09.449Z,10.38
2022-11-17T03:30:40.702Z,10.25
2022-11-17T03:33:16.474Z,10.30
2022-11-17T03:36:00.964Z,10.37
2022-11-17T03:38:31.526Z,10.24
2022-11-17T03:41:03.124Z,10.13
2022-11-17T03:43:31.455Z,10.18
2022-11-17T03:46:05.704Z,10.21
2022-11-17T03:48:43.006Z,10.29
2022-11-17T03:51:18.077Z,10.37
2022-11-17T03:53:46.394Z,10.36
2022-11-17T03:56:34.737Z,10.36
2022-11-17T03:59:11.419Z,10.45
2022-11-17T04:01:38.148Z,10.55
2022-11-17T04:04:04.852Z,10.44
2022-11-17T04:06:31.512Z,10.49
2022-11-17T04:08:58.102Z,10.50
2022-11-17T04:11:43.252Z,10.54
2022-11-17T04:14:28.492Z,10.51
2022-11-17T04:16:55.109Z,10.56
2022-11-17T04:19:21.741Z,10.55
2022-11-17T04:21:48.337Z,10.62
2022-11-17T04:24:15.156Z,10.69
2022-11-17T04:27:00.567Z,10.52
2022-11-17T04:29:28.432Z,10.66
2022-11-17T04:31:55.010Z,10.63
2022-11-17T04:34:21.692Z,10.64
2022-11-17T04:36:48.266Z,10.69
2022-11-17T04:39:15.840Z,10.87
2022-11-17T04:42:01.984Z,10.76
2022-11-17T04:44:30.957Z,10.53
2022-11-17T04:46:58.039Z,10.49
2022-11-17T04:49:26.425Z,10.55
2022-11-17T04:51:54.240Z,10.48
2022-11-17T04:54:26.147Z,10.56
2022-11-17T04:56:54.044Z,10.67
2022-11-17T04:59:21.016Z,10.55
2022-11-17T05:01:47.754Z,10.51
2022-11-17T05:04:36.624Z,10.57
2022-11-17T05:07:03.525Z,10.73
2022-11-17T05:09:30.188Z,10.73
2022-11-17T05:12:15.383Z,10.65
2022-11-17T05:14:42.083Z,10.62
2022-11-17T05:17:11.382Z,10.51
2022-11-17T05:19:46.832Z,10.46
2022-11-17T05:22:37.760Z,10.46
2022-11-17T05:25:05.498Z,10.57
2022-11-17T05:27:33.912Z,10.49
2022-11-17T05:30:01.476Z,10.54
2022-11-17T05:32:28.061Z,10.55
2022-11-17T05:34:54.644Z,10.68
2022-11-17T05:37:21.261Z,10.66
2022-11-17T05:39:47.929Z,10.58
2022-11-17T05:42:14.539Z,10.65
2022-11-17T05:44:41.126Z,10.70
2022-11-17T05:47:07.720Z,10.84
2022-11-17T05:49:34.301Z,10.63
2022-11-17T05:52:00.943Z,10.89
2022-11-17T05:54:27.633Z,10.80
2022-11-17T05:57:03.066Z,10.62
2022-11-17T05:59:35.747Z,10.55
2022-11-17T06:02:15.299Z,10.64
2022-11-17T06:04:42.261Z,10.58
2022-11-17T06:07:09.962Z,10.55
2022-11-17T06:09:40.594Z,10.48
2022-11-17T06:12:07.264Z,10.60
2022-11-17T06:14:35.456Z,10.80
2022-11-17T06:17:07.317Z,10.67
2022-11-17T06:19:41.176Z,10.69
2022-11-17T06:22:13.304Z,10.66
2022-11-17T06:24:43.093Z,10.54
2022-11-17T06:27:12.011Z,10.56
2022-11-17T06:29:43.878Z,10.52
2022-11-17T06:32:15.998Z,10.72
2022-11-17T06:34:48.040Z,10.67
2022-11-17T06:37:18.744Z,10.64
2022-11-17T06:39:45.327Z,10.53
2022-11-17T06:42:12.170Z,10.55
2022-11-17T06:44:39.263Z,10.50
2022-11-17T06:47:06.028Z,10.60
2022-11-17T06:49:32.608Z,10.70
2022-11-17T06:51:59.217Z,10.71
2022-11-17T06:54:25.839Z,10.56
2022-11-17T06:56:52.552Z,10.69
2022-11-17T06:59:19.121Z,10.76
2022-11-17T07:01:45.716Z,11.01
2022-11-17T07:04:12.316Z,11.03
2022-11-17T07:06:39.611Z,10.85
2022-11-17T07:09:06.350Z,10.82
2022-11-17T07:11:36.201Z,10.76
2022-11-17T07:14:02.986Z,10.68
2022-11-17T07:16:30.723Z,10.79
2022-11-17T07:18:59.213Z,10.79
2022-11-17T07:21:26.162Z,10.78
2022-11-17T07:23:52.796Z,10.70
2022-11-17T07:26:19.426Z,10.66
2022-11-17T07:28:46.011Z,10.79
2022-11-17T07:31:12.670Z,10.63
2022-11-17T07:33:39.255Z,10.64
2022-11-17T07:36:11.037Z,10.75
2022-11-17T07:38:39.683Z,10.44
2022-11-17T07:41:08.788Z,10.64
2022-11-17T07:43:36.187Z,10.67
2022-11-17T07:46:07.165Z,10.86
2022-11-17T07:48:34.559Z,10.54
2022-11-17T07:51:03.167Z,10.47
2022-11-17T07:53:31.587Z,10.50
2022-11-17T07:56:06.116Z,10.45
2022-11-17T07:58:33.150Z,10.49
2022-11-17T08:01:03.997Z,10.49
2022-11-17T08:03:30.639Z,10.56
2022-11-17T08:05:57.713Z,10.74
2022-11-17T08:08:24.284Z,10.53
2022-11-17T08:10:50.919Z,10.56
2022-11-17T08:13:17.581Z,10.76
2022-11-17T08:15:44.174Z,10.66
2022-11-17T08:18:10.948Z,10.62
2022-11-17T08:20:37.837Z,10.35
2022-11-17T08:23:04.422Z,10.41
2022-11-17T08:25:31.012Z,10.45
2022-11-17T08:27:58.573Z,10.39
2022-11-17T08:30:26.341Z,10.54
2022-11-17T08:32:54.381Z,10.43
2022-11-17T08:35:23.927Z,10.23
2022-11-17T08:37:52.370Z,10.31
2022-11-17T08:40:19.754Z,10.39
2022-11-17T08:42:46.854Z,10.47
2022-11-17T08:45:14.076Z,10.35
2022-11-17T08:47:40.775Z,10.33
2022-11-17T08:50:08.350Z,10.41
2022-11-17T08:52:34.961Z,10.46
2022-11-17T08:55:02.551Z,10.42
2022-11-17T08:57:30.486Z,10.39
2022-11-17T08:59:57.362Z,10.21
2022-11-17T09:02:26.151Z,10.01
2022-11-17T09:04:52.791Z,9.93
2022-11-17T09:07:19.871Z,9.87
2022-11-17T09:09:46.558Z,9.64
2022-11-17T09:12:13.229Z,9.76
2022-11-17T09:14:39.925Z,9.79
2022-11-17T09:17:06.796Z,9.85
2022-11-17T09:19:33.605Z,9.74
2022-11-17T09:22:00.215Z,9.96
2022-11-17T09:24:27.220Z,9.83
2022-11-17T09:26:54.847Z,9.99
2022-11-17T09:29:21.849Z,9.86
2022-11-17T09:31:48.870Z,10.00
2022-11-17T09:34:16.904Z,9.86
2022-11-17T09:36:44.031Z,9.96
2022-11-17T09:39:10.652Z,9.98
2022-11-17T09:41:43.724Z,10.19
2022-11-17T09:44:32.505Z,10.07
2022-11-17T09:47:32.434Z,10.10
2022-11-17T09:50:39.804Z,10.19
2022-11-17T09:53:28.171Z,10.26
2022-11-17T09:56:00.987Z,10.45
2022-11-17T09:58:40.140Z,10.36
2022-11-17T10:01:15.040Z,10.22
2022-11-17T10:03:46.231Z,10.31
2022-11-17T10:06:21.757Z,10.25
2022-11-17T10:09:03.606Z,10.17
2022-11-17T10:11:37.204Z,10.17
2022-11-17T10:14:15.895Z,10.23
2022-11-17T10:17:00.694Z,10.22
2022-11-17T10:19:32.124Z,10.22
2022-11-17T10:22:01.637Z,10.40
2022-11-17T10:24:37.526Z,10.77
2022-11-17T10:27:15.333Z,10.79
2022-11-17T10:29:41.937Z,10.71
2022-11-17T10:32:14.815Z,10.67
2022-11-17T10:34:41.917Z,10.44
2022-11-17T10:37:15.260Z,10.46
2022-11-17T10:39:43.225Z,10.48
2022-11-17T10:42:20.804Z,10.58
2022-11-17T10:44:52.293Z,10.38
2022-11-17T10:47:29.735Z,10.69
2022-11-17T10:50:05.483Z,10.71
2022-11-17T10:52:32.056Z,10.82
2022-11-17T10:55:24.957Z,10.88
2022-11-17T10:57:55.607Z,10.89
2022-11-17T11:00:30.687Z,10.88
2022-11-17T11:03:19.541Z,10.68
2022-11-17T11:06:02.189Z,10.75
2022-11-17T11:08:35.931Z,10.70
2022-11-17T11:11:08.906Z,10.84
2022-11-17T11:14:08.163Z,11.01
2022-11-17T11:16:34.874Z,11.14
2022-11-17T11:19:01.527Z,11.11
2022-11-17T11:21:52.712Z,11.19
2022-11-17T11:24:51.182Z,11.33
2022-11-17T11:27:45.744Z,11.22
2022-11-17T11:30:16.097Z,11.59
2022-11-17T11:32:51.829Z,11.48
2022-11-17T11:36:07.937Z,11.32
2022-11-17T11:38:52.725Z,11.21
2022-11-17T11:41:53.576Z,11.13
2022-11-17T11:44:29.328Z,11.26
2022-11-17T11:47:06.873Z,11.32
2022-11-17T11:49:43.692Z,11.42
2022-11-17T11:52:16.191Z,11.59
2022-11-17T11:55:14.602Z,11.65
2022-11-17T11:57:53.330Z,11.85
2022-11-17T12:00:20.142Z,11.74
2022-11-17T12:03:03.955Z,11.93
2022-11-17T12:05:59.383Z,11.98
2022-11-17T12:08:36.068Z,11.99
2022-11-17T12:11:30.095Z,12.22
2022-11-17T12:13:58.318Z,12.29
2022-11-17T12:16:31.890Z,12.27
2022-11-17T12:18:58.499Z,12.30
2022-11-17T12:21:26.457Z,12.28
2022-11-17T12:24:14.541Z,12.41
2022-11-17T12:26:41.760Z,12.72
2022-11-17T12:29:20.577Z,12.71
2022-11-17T12:31:49.490Z,12.78
2022-11-17T12:34:32.058Z,12.49
2022-11-17T12:37:14.673Z,12.80
2022-11-17T12:39:57.807Z,12.75
2022-11-17T12:42:25.048Z,12.54
2022-11-17T12:45:08.573Z,12.41
2022-11-17T12:47:37.989Z,12.38
2022-11-17T12:50:37.408Z,12.41
2022-11-17T12:53:11.979Z,12.32
2022-11-17T12:56:04.824Z,12.03
2022-11-17T12:58:52.582Z,12.16
2022-11-17T13:01:42.154Z,12.01
2022-11-17T13:04:15.896Z,12.00
2022-11-17T13:07:02.219Z,12.11
2022-11-17T13:09:31.470Z,11.90
2022-11-17T13:12:05.978Z,12.24
2022-11-17T13:14:34.681Z,12.44
2022-11-17T13:17:02.697Z,12.35
2022-11-17T13:19:41.320Z,12.29
2022-11-17T13:22:10.781Z,12.36
2022-11-17T13:24:39.869Z,12.34
2022-11-17T13:27:20.049Z,12.15
2022-11-17T13:29:46.629Z,12.09
2022-11-17T13:32:21.193Z,12.17
2022-11-17T13:35:01.097Z,12.34
2022-11-17T13:37:29.195Z,12.22
2022-11-17T13:40:19.798Z,12.13
2022-11-17T13:42:46.813Z,12.24
2022-11-17T13:45:15.672Z,12.15
2022-11-17T13:47:45.671Z,12.21
2022-11-17T13:50:27.416Z,12.31
2022-11-17T13:53:02.589Z,12.27
2022-11-17T13:55:29.830Z,12.51
2022-11-17T13:57:59.966Z,12.50
2022-11-17T14:00:27.789Z,12.34
2022-11-17T14:03:04.415Z,12.28
2022-11-17T14:05:32.823Z,12.27
2022-11-17T14:08:14.045Z,12.36
2022-11-17T14:10:40.755Z,12.28
2022-11-17T14:13:21.975Z,12.18
2022-11-17T14:15:57.755Z,12.35
2022-11-17T14:18:38.865Z,12.46
2022-11-17T14:21:08.554Z,12.42
2022-11-17T14:23:35.210Z,12.64
2022-11-17T14:26:01.773Z,12.57
2022-11-17T14:28:28.408Z,12.56
2022-11-17T14:30:56.993Z,12.58
2022-11-17T14:33:24.491Z,12.42
2022-11-17T14:35:54.983Z,12.31
2022-11-17T14:38:21.968Z,12.34
2022-11-17T14:40:53.355Z,12.32
2022-11-17T14:43:21.441Z,12.34
2022-11-17T14:45:49.285Z,12.39
2022-11-17T14:48:19.421Z,12.46
2022-11-17T14:50:47.319Z,12.57
2022-11-17T14:53:14.092Z,12.78
2022-11-17T14:55:40.662Z,13.12
2022-11-17T14:58:07.333Z,13.25
2022-11-17T15:00:33.971Z,13.46
2022-11-17T15:03:00.871Z,13.32
2022-11-17T15:05:27.533Z,13.00
2022-11-17T15:07:56.533Z,12.85
2022-11-17T15:10:23.293Z,12.81
2022-11-17T15:12:49.980Z,12.71
2022-11-17T15:15:17.980Z,12.73
2022-11-17T15:17:44.565Z,12.91
2022-11-17T15:20:11.786Z,12.73
2022-11-17T15:22:38.461Z,12.60
2022-11-17T15:25:05.400Z,12.53
2022-11-17T15:27:32.008Z,12.59
2022-11-17T15:29:58.573Z,12.65
2022-11-17T15:32:25.380Z,12.62
2022-11-17T15:34:52.019Z,12.67
2022-11-17T15:37:18.674Z,12.73
2022-11-17T15:39:45.331Z,12.57
2022-11-17T15:42:11.926Z,12.71
2022-11-17T15:44:38.523Z,12.49
2022-11-17T15:47:05.228Z,12.53
2022-11-17T15:49:31.850Z,12.44
2022-11-17T15:51:58.439Z,12.33
2022-11-17T15:54:25.173Z,12.31
2022-11-17T15:56:52.099Z,12.27
2022-11-17T15:59:19.017Z,12.37
2022-11-17T16:01:46.073Z,12.51
2022-11-17T16:04:15.945Z,12.64
2022-11-17T16:06:44.532Z,12.61
2022-11-17T16:09:12.240Z,12.75
2022-11-17T16:11:39.556Z,12.62
2022-11-17T16:14:06.913Z,12.22
2022-11-17T16:16:35.981Z,12.18
2022-11-17T16:19:02.895Z,11.96
2022-11-17T16:21:29.530Z,12.16
2022-11-17T16:23:57.698Z,12.30
2022-11-17T16:26:25.969Z,12.49
2022-11-17T16:28:57.225Z,12.32
2022-11-17T16:31:25.784Z,12.55
2022-11-17T16:33:55.080Z,12.07
2022-11-17T16:36:24.082Z,11.98
2022-11-17T16:39:01.037Z,12.18
2022-11-17T16:41:33.568Z,11.98
2022-11-17T16:44:00.720Z,12.05
2022-11-17T16:46:30.337Z,11.97
2022-11-17T16:49:01.552Z,11.76
2022-11-17T16:51:28.421Z,11.83
2022-11-17T16:53:57.292Z,11.69
2022-11-17T16:56:24.135Z,12.02
2022-11-17T16:58:51.505Z,11.92
2022-11-17T17:01:20.702Z,11.77
2022-11-17T17:03:47.290Z,11.83
2022-11-17T17:06:17.125Z,11.82
2022-11-17T17:08:44.462Z,12.04
2022-11-17T17:11:13.488Z,11.75
2022-11-17T17:13:43.471Z,11.75
2022-11-17T17:16:12.839Z,11.82
2022-11-17T17:18:40.488Z,11.74
2022-11-17T17:21:10.018Z,11.75
2022-11-17T17:23:36.658Z,11.69
2022-11-17T17:26:09.275Z,11.60
2022-11-17T17:28:37.605Z,11.62
2022-11-17T17:31:04.627Z,11.74
2022-11-17T17:33:32.471Z,11.65
2022-11-17T17:36:10.861Z,11.51
2022-11-17T17:38:38.242Z,11.57
2022-11-17T17:41:15.944Z,11.65
2022-11-17T17:43:44.438Z,11.64
2022-11-17T17:46:15.894Z,11.64
2022-11-17T17:48:43.807Z,11.69
2022-11-17T17:51:14.766Z,11.68
2022-11-17T17:53:41.863Z,11.72
2022-11-17T17:56:10.841Z,11.85
2022-11-17T17:58:41.079Z,11.86
2022-11-17T18:01:25.056Z,11.65
2022-11-17T18:04:00.978Z,11.75
2022-11-17T18:06:28.211Z,11.79
2022-11-17T18:08:54.840Z,11.66
2022-11-17T18:11:22.293Z,11.56
2022-11-17T18:13:50.984Z,11.42
2022-11-17T18:16:23.812Z,11.43
2022-11-17T18:18:56.391Z,11.48
2022-11-17T18:21:23.210Z,11.42
2022-11-17T18:23:49.877Z,11.50
2022-11-17T18:26:22.671Z,11.54
2022-11-17T18:28:58.705Z,11.57
2022-11-17T18:31:28.847Z,11.64
2022-11-17T18:34:00.932Z,11.78
2022-11-17T18:36:28.849Z,11.73
2022-11-17T18:38:57.930Z,11.77
2022-11-17T18:41:26.309Z,11.81
2022-11-17T18:43:53.089Z,11.87
2022-11-17T18:46:22.041Z,11.74
2022-11-17T18:48:51.571Z,11.29
2022-11-17T18:51:21.540Z,11.17
2022-11-17T18:53:49.753Z,10.99
2022-11-17T18:56:18.588Z,10.97
2022-11-17T18:58:45.232Z,11.18
2022-11-17T19:01:17.691Z,11.22
2022-11-17T19:03:46.253Z,11.18
2022-11-17T19:06:14.390Z,11.01
2022-11-17T19:08:41.345Z,11.24
2022-11-17T19:11:09.233Z,11.21
2022-11-17T19:13:38.406Z,11.05
2022-11-17T19:16:19.732Z,11.23
2022-11-17T19:18:48.467Z,10.99
2022-11-17T19:21:19.110Z,10.82
2022-11-17T19:23:51.558Z,10.87
2022-11-17T19:26:27.632Z,10.79
2022-11-17T19:28:58.756Z,10.79
2022-11-17T19:31:26.426Z,10.86
2022-11-17T19:33:54.092Z,10.96
2022-11-17T19:36:23.376Z,10.65
2022-11-17T19:38:54.965Z,10.66
2022-11-17T19:41:26.834Z,10.78
2022-11-17T19:43:54.677Z,10.89
2022-11-17T19:46:22.726Z,10.89
2022-11-17T19:48:49.540Z,11.09
2022-11-17T19:51:23.589Z,11.39
2022-11-17T19:53:52.430Z,11.58
2022-11-17T19:56:19.964Z,11.68
2022-11-17T19:58:47.438Z,11.09
2022-11-17T20:01:33.504Z,11.34
2022-11-17T20:04:01.178Z,10.77
2022-11-17T20:06:36.937Z,10.97
2022-11-17T20:09:12.333Z,11.26
2022-11-17T20:11:39.789Z,10.73
2022-11-17T20:14:06.483Z,10.47
2022-11-17T20:16:33.127Z,10.70
2022-11-17T20:19:01.359Z,10.95
2022-11-17T20:21:29.639Z,10.64
2022-11-17T20:23:57.474Z,10.73
2022-11-17T20:26:26.478Z,10.47
2022-11-17T20:28:53.409Z,10.10
2022-11-17T20:31:25.360Z,10.61
2022-11-17T20:33:53.909Z,10.31
2022-11-17T20:36:21.482Z,10.56
2022-11-17T20:39:05.929Z,10.73
2022-11-17T20:41:32.559Z,10.94
2022-11-17T20:44:00.301Z,10.96
2022-11-17T20:46:27.725Z,10.69
2022-11-17T20:48:54.506Z,10.06
2022-11-17T20:51:23.394Z,10.13
2022-11-17T20:53:50.422Z,10.92
2022-11-17T20:56:17.382Z,10.92
2022-11-17T20:58:44.525Z,10.92
2022-11-17T21:01:16.446Z,11.35
2022-11-17T21:03:43.848Z,10.49
2022-11-17T21:06:11.176Z,10.48
2022-11-17T21:08:40.315Z,10.92
2022-11-17T21:11:10.094Z,11.22
2022-11-17T21:13:37.285Z,11.20
2022-11-17T21:16:12.511Z,11.02
2022-11-17T21:18:45.653Z,11.02
2022-11-17T21:21:12.458Z,11.48
2022-11-17T21:23:40.557Z,11.57
2022-11-17T21:26:12.879Z,11.61
2022-11-17T21:28:40.875Z,11.24
2022-11-17T21:31:11.465Z,11.42
2022-11-17T21:33:38.819Z,11.27
2022-11-17T21:36:11.936Z,11.30
2022-11-17T21:38:38.885Z,11.26
2022-11-17T21:41:07.897Z,11.22
2022-11-17T21:43:39.488Z,11.40
2022-11-17T21:46:07.319Z,11.32
2022-11-17T21:48:34.897Z,11.35
2022-11-17T21:51:01.529Z,11.39
2022-11-17T21:53:28.457Z,11.16
2022-11-17T21:56:04.174Z,11.23
2022-11-17T21:58:31.005Z,11.42
2022-11-17T22:00:58.133Z,10.99
2022-11-17T22:03:25.061Z,11.08
2022-11-17T22:05:52.297Z,11.29
2022-11-17T22:08:19.193Z,11.33
2022-11-17T22:10:45.757Z,11.36
2022-11-17T22:13:12.711Z,11.27
2022-11-17T22:15:39.300Z,11.31
2022-11-17T22:18:05.954Z,11.16
2022-11-17T22:20:32.519Z,11.20
2022-11-17T22:22:59.114Z,11.02
2022-11-17T22:25:44.171Z,11.10
2022-11-17T22:28:11.773Z,10.91
2022-11-17T22:30:38.937Z,10.71
2022-11-17T22:33:05.555Z,10.98
2022-11-17T22:35:32.156Z,10.91
2022-11-17T22:37:58.738Z,10.97
2022-11-17T22:40:25.327Z,10.98
2022-11-17T22:42:54.978Z,11.10
2022-11-17T22:45:21.563Z,11.14
2022-11-17T22:47:48.161Z,10.99
2022-11-17T22:50:14.746Z,11.32
2022-11-17T22:52:41.339Z,11.03
2022-11-17T22:55:08.307Z,11.15
2022-11-17T22:57:34.943Z,11.06
2022-11-17T23:00:01.496Z,11.03
2022-11-17T23:02:28.557Z,11.02
2022-11-17T23:04:55.183Z,10.87
2022-11-17T23:07:22.197Z,10.91
2022-11-17T23:09:48.900Z,11.22
2022-11-17T23:12:15.530Z,11.20
2022-11-17T23:14:42.088Z,11.36
2022-11-17T23:17:08.694Z,11.46
2022-11-17T23:19:35.399Z,11.10
2022-11-17T23:22:02.002Z,11.46
2022-11-17T23:24:28.576Z,11.28
2022-11-17T23:26:55.564Z,11.31
2022-11-17T23:29:22.120Z,11.30
2022-11-17T23:31:49.221Z,10.92
2022-11-17T23:34:15.784Z,10.82
2022-11-17T23:36:42.356Z,10.83
2022-11-17T23:39:09.009Z,10.77
2022-11-17T23:41:35.671Z,11.25
2022-11-17T23:44:02.261Z,11.22
2022-11-17T23:46:28.993Z,11.16
2022-11-17T23:48:57.103Z,10.91
2022-11-17T23:51:25.611Z,11.24
2022-11-17T23:53:52.686Z,10.96
2022-11-17T23:56:20.453Z,10.94
2022-11-17T23:58:47.360Z,11.09
